sensor_id;sensor_type;location;lat;lon;timestamp;temperature;humidity
64599;SHT31;51008;51.504;11.548;2023-02-28T00:02:04;-0.97;85.60
64599;SHT31;51008;51.504;11.548;2023-02-28T00:07:05;-0.97;85.43
64599;SHT31;51008;51.504;11.548;2023-02-28T00:12:06;-0.95;85.10
64599;SHT31;51008;51.504;11.548;2023-02-28T00:17:07;-0.87;84.97
64599;SHT31;51008;51.504;11.548;2023-02-28T00:22:08;-0.87;85.40
64599;SHT31;51008;51.504;11.548;2023-02-28T00:27:09;-0.90;84.89
64599;SHT31;51008;51.504;11.548;2023-02-28T00:32:10;-0.87;85.14
64599;SHT31;51008;51.504;11.548;2023-02-28T00:37:12;-0.84;84.68
64599;SHT31;51008;51.504;11.548;2023-02-28T00:42:13;-0.94;84.57
64599;SHT31;51008;51.504;11.548;2023-02-28T00:47:14;-0.87;84.44
64599;SHT31;51008;51.504;11.548;2023-02-28T00:52:15;-0.91;85.42
64599;SHT31;51008;51.504;11.548;2023-02-28T00:57:16;-0.90;82.35
64599;SHT31;51008;51.504;11.548;2023-02-28T01:02:17;-0.90;83.49
64599;SHT31;51008;51.504;11.548;2023-02-28T01:07:18;-0.91;83.87
64599;SHT31;51008;51.504;11.548;2023-02-28T01:12:21;-0.93;83.94
64599;SHT31;51008;51.504;11.548;2023-02-28T01:17:22;-0.94;84.04
64599;SHT31;51008;51.504;11.548;2023-02-28T01:22:23;-0.93;83.83
64599;SHT31;51008;51.504;11.548;2023-02-28T01:27:24;-0.90;83.94
64599;SHT31;51008;51.504;11.548;2023-02-28T01:32:25;-0.91;83.86
64599;SHT31;51008;51.504;11.548;2023-02-28T01:37:26;-0.94;84.37
64599;SHT31;51008;51.504;11.548;2023-02-28T01:42:27;-0.91;84.33
64599;SHT31;51008;51.504;11.548;2023-02-28T01:47:35;-0.90;83.60
64599;SHT31;51008;51.504;11.548;2023-02-28T01:52:37;-0.95;83.82
64599;SHT31;51008;51.504;11.548;2023-02-28T01:57:42;-0.94;83.81
64599;SHT31;51008;51.504;11.548;2023-02-28T02:02:47;-0.94;84.84
64599;SHT31;51008;51.504;11.548;2023-02-28T02:07:52;-0.94;85.08
64599;SHT31;51008;51.504;11.548;2023-02-28T02:13:32;-0.95;85.45
64599;SHT31;51008;51.504;11.548;2023-02-28T02:18:43;-1.00;85.43
64599;SHT31;51008;51.504;11.548;2023-02-28T02:35:18;-1.11;85.57
64599;SHT31;51008;51.504;11.548;2023-02-28T02:46:35;-1.11;86.01
64599;SHT31;51008;51.504;11.548;2023-02-28T02:51:38;-1.24;86.36
64599;SHT31;51008;51.504;11.548;2023-02-28T02:56:42;-1.27;86.20
64599;SHT31;51008;51.504;11.548;2023-02-28T03:01:44;-1.31;86.28
64599;SHT31;51008;51.504;11.548;2023-02-28T03:06:45;-1.45;86.50
64599;SHT31;51008;51.504;11.548;2023-02-28T03:11:46;-1.52;86.93
64599;SHT31;51008;51.504;11.548;2023-02-28T03:37:50;-1.73;88.22
64599;SHT31;51008;51.504;11.548;2023-02-28T03:42:57;-1.77;88.05
64599;SHT31;51008;51.504;11.548;2023-02-28T03:48:05;-1.73;87.91
64599;SHT31;51008;51.504;11.548;2023-02-28T04:03:28;-1.91;87.37
64599;SHT31;51008;51.504;11.548;2023-02-28T04:08:29;-2.05;87.39
64599;SHT31;51008;51.504;11.548;2023-02-28T04:13:30;-2.06;87.93
64599;SHT31;51008;51.504;11.548;2023-02-28T04:18:31;-2.22;88.42
64599;SHT31;51008;51.504;11.548;2023-02-28T04:23:32;-2.30;88.78
64599;SHT31;51008;51.504;11.548;2023-02-28T04:28:33;-2.21;87.90
64599;SHT31;51008;51.504;11.548;2023-02-28T04:33:34;-2.10;87.47
64599;SHT31;51008;51.504;11.548;2023-02-28T04:38:37;-2.15;87.54
64599;SHT31;51008;51.504;11.548;2023-02-28T04:43:38;-2.13;87.18
64599;SHT31;51008;51.504;11.548;2023-02-28T04:48:39;-2.22;87.23
64599;SHT31;51008;51.504;11.548;2023-02-28T04:53:41;-2.23;87.45
64599;SHT31;51008;51.504;11.548;2023-02-28T04:58:43;-2.09;86.10
64599;SHT31;51008;51.504;11.548;2023-02-28T05:03:44;-2.28;86.40
64599;SHT31;51008;51.504;11.548;2023-02-28T05:08:45;-2.36;86.85
64599;SHT31;51008;51.504;11.548;2023-02-28T05:13:47;-2.57;86.89
64599;SHT31;51008;51.504;11.548;2023-02-28T05:18:48;-2.58;87.20
64599;SHT31;51008;51.504;11.548;2023-02-28T05:23:49;-2.60;87.31
64599;SHT31;51008;51.504;11.548;2023-02-28T05:28:51;-2.64;87.36
64599;SHT31;51008;51.504;11.548;2023-02-28T05:33:52;-2.75;87.45
64599;SHT31;51008;51.504;11.548;2023-02-28T05:38:53;-3.02;87.73
64599;SHT31;51008;51.504;11.548;2023-02-28T05:43:54;-3.19;88.44
64599;SHT31;51008;51.504;11.548;2023-02-28T05:48:55;-3.15;88.73
64599;SHT31;51008;51.504;11.548;2023-02-28T05:54:00;-3.15;88.89
64599;SHT31;51008;51.504;11.548;2023-02-28T05:59:01;-3.19;88.43
64599;SHT31;51008;51.504;11.548;2023-02-28T06:04:04;-3.30;88.46
64599;SHT31;51008;51.504;11.548;2023-02-28T06:09:05;-3.46;88.85
64599;SHT31;51008;51.504;11.548;2023-02-28T06:14:06;-3.48;89.42
64599;SHT31;51008;51.504;11.548;2023-02-28T06:19:09;-3.41;89.41
64599;SHT31;51008;51.504;11.548;2023-02-28T06:24:10;-3.47;89.30
64599;SHT31;51008;51.504;11.548;2023-02-28T06:29:12;-3.47;90.23
64599;SHT31;51008;51.504;11.548;2023-02-28T06:34:13;-3.41;89.97
64599;SHT31;51008;51.504;11.548;2023-02-28T06:39:14;-3.26;90.17
64599;SHT31;51008;51.504;11.548;2023-02-28T06:44:17;-3.10;90.51
64599;SHT31;51008;51.504;11.548;2023-02-28T06:49:18;-2.84;89.92
64599;SHT31;51008;51.504;11.548;2023-02-28T06:54:19;-2.58;89.37
64599;SHT31;51008;51.504;11.548;2023-02-28T06:59:20;-2.25;89.36
64599;SHT31;51008;51.504;11.548;2023-02-28T07:04:21;-1.68;89.34
64599;SHT31;51008;51.504;11.548;2023-02-28T07:09:23;-1.09;87.40
64599;SHT31;51008;51.504;11.548;2023-02-28T07:14:23;-0.63;86.46
64599;SHT31;51008;51.504;11.548;2023-02-28T07:19:27;-0.05;85.44
64599;SHT31;51008;51.504;11.548;2023-02-28T07:24:29;1.03;80.88
64599;SHT31;51008;51.504;11.548;2023-02-28T07:29:30;1.93;76.53
64599;SHT31;51008;51.504;11.548;2023-02-28T07:34:31;2.87;73.33
64599;SHT31;51008;51.504;11.548;2023-02-28T07:39:32;3.81;71.09
64599;SHT31;51008;51.504;11.548;2023-02-28T07:44:33;4.23;67.51
64599;SHT31;51008;51.504;11.548;2023-02-28T07:49:35;4.81;64.61
64599;SHT31;51008;51.504;11.548;2023-02-28T07:54:36;4.58;61.94
64599;SHT31;51008;51.504;11.548;2023-02-28T07:59:37;4.87;62.49
64599;SHT31;51008;51.504;11.548;2023-02-28T08:04:38;4.73;59.34
64599;SHT31;51008;51.504;11.548;2023-02-28T08:09:40;4.61;59.58
64599;SHT31;51008;51.504;11.548;2023-02-28T08:14:41;4.68;59.24
64599;SHT31;51008;51.504;11.548;2023-02-28T08:19:45;5.33;58.82
64599;SHT31;51008;51.504;11.548;2023-02-28T08:24:46;5.02;58.87
64599;SHT31;51008;51.504;11.548;2023-02-28T08:29:47;4.83;56.87
64599;SHT31;51008;51.504;11.548;2023-02-28T08:34:48;4.74;58.33
64599;SHT31;51008;51.504;11.548;2023-02-28T08:39:49;4.94;58.38
64599;SHT31;51008;51.504;11.548;2023-02-28T08:44:50;5.23;57.82
64599;SHT31;51008;51.504;11.548;2023-02-28T08:49:51;5.05;57.40
64599;SHT31;51008;51.504;11.548;2023-02-28T08:54:51;4.64;55.96
64599;SHT31;51008;51.504;11.548;2023-02-28T08:59:52;4.56;55.83
64599;SHT31;51008;51.504;11.548;2023-02-28T09:04:53;4.47;56.59
64599;SHT31;51008;51.504;11.548;2023-02-28T09:09:54;5.11;56.33
64599;SHT31;51008;51.504;11.548;2023-02-28T09:14:55;5.30;55.96
64599;SHT31;51008;51.504;11.548;2023-02-28T09:19:57;4.57;55.94
64599;SHT31;51008;51.504;11.548;2023-02-28T09:24:58;4.74;55.63
64599;SHT31;51008;51.504;11.548;2023-02-28T09:29:59;4.73;56.64
64599;SHT31;51008;51.504;11.548;2023-02-28T09:34:59;4.87;55.60
64599;SHT31;51008;51.504;11.548;2023-02-28T09:40:00;5.13;53.77
64599;SHT31;51008;51.504;11.548;2023-02-28T09:45:06;5.51;52.29
64599;SHT31;51008;51.504;11.548;2023-02-28T09:50:28;4.98;51.77
64599;SHT31;51008;51.504;11.548;2023-02-28T09:55:33;5.18;51.53
64599;SHT31;51008;51.504;11.548;2023-02-28T10:00:39;5.22;52.39
64599;SHT31;51008;51.504;11.548;2023-02-28T10:05:49;5.43;51.96
64599;SHT31;51008;51.504;11.548;2023-02-28T10:10:56;5.77;51.80
64599;SHT31;51008;51.504;11.548;2023-02-28T10:16:39;5.72;50.04
64599;SHT31;51008;51.504;11.548;2023-02-28T10:21:56;4.70;51.21
64599;SHT31;51008;51.504;11.548;2023-02-28T10:27:13;4.49;52.04
64599;SHT31;51008;51.504;11.548;2023-02-28T10:32:20;4.92;53.21
64599;SHT31;51008;51.504;11.548;2023-02-28T10:37:21;4.25;52.26
64599;SHT31;51008;51.504;11.548;2023-02-28T10:42:28;4.40;52.45
64599;SHT31;51008;51.504;11.548;2023-02-28T10:47:30;4.15;54.97
64599;SHT31;51008;51.504;11.548;2023-02-28T10:52:40;4.67;54.82
64599;SHT31;51008;51.504;11.548;2023-02-28T10:57:41;4.68;53.53
64599;SHT31;51008;51.504;11.548;2023-02-28T11:02:42;5.09;52.67
64599;SHT31;51008;51.504;11.548;2023-02-28T11:07:51;5.40;54.03
64599;SHT31;51008;51.504;11.548;2023-02-28T11:12:56;5.13;53.25
64599;SHT31;51008;51.504;11.548;2023-02-28T11:18:01;5.08;53.03
64599;SHT31;51008;51.504;11.548;2023-02-28T11:23:04;5.04;50.27
64599;SHT31;51008;51.504;11.548;2023-02-28T11:28:24;4.92;51.50
64599;SHT31;51008;51.504;11.548;2023-02-28T11:33:30;4.98;50.40
64599;SHT31;51008;51.504;11.548;2023-02-28T11:38:34;4.75;51.21
64599;SHT31;51008;51.504;11.548;2023-02-28T11:49:14;4.60;51.35
64599;SHT31;51008;51.504;11.548;2023-02-28T12:10:27;4.89;52.97
64599;SHT31;51008;51.504;11.548;2023-02-28T12:15:40;5.23;52.63
64599;SHT31;51008;51.504;11.548;2023-02-28T12:21:11;5.11;54.05
64599;SHT31;51008;51.504;11.548;2023-02-28T12:31:36;5.30;53.55
64599;SHT31;51008;51.504;11.548;2023-02-28T12:36:41;4.99;52.70
64599;SHT31;51008;51.504;11.548;2023-02-28T12:41:54;4.98;53.26
64599;SHT31;51008;51.504;11.548;2023-02-28T12:47:02;4.81;52.95
64599;SHT31;51008;51.504;11.548;2023-02-28T12:52:04;4.77;52.81
64599;SHT31;51008;51.504;11.548;2023-02-28T13:02:45;5.07;53.84
64599;SHT31;51008;51.504;11.548;2023-02-28T13:08:04;5.29;54.31
64599;SHT31;51008;51.504;11.548;2023-02-28T13:13:15;4.81;53.41
64599;SHT31;51008;51.504;11.548;2023-02-28T13:18:41;4.99;54.01
64599;SHT31;51008;51.504;11.548;2023-02-28T13:23:56;5.05;55.28
64599;SHT31;51008;51.504;11.548;2023-02-28T13:29:04;5.26;55.02
64599;SHT31;51008;51.504;11.548;2023-02-28T13:34:21;5.01;53.61
64599;SHT31;51008;51.504;11.548;2023-02-28T13:39:52;4.68;54.27
64599;SHT31;51008;51.504;11.548;2023-02-28T14:16:41;4.61;55.41
64599;SHT31;51008;51.504;11.548;2023-02-28T14:33:31;4.40;55.56
64599;SHT31;51008;51.504;11.548;2023-02-28T14:39:30;4.39;55.79
64599;SHT31;51008;51.504;11.548;2023-02-28T14:44:16;4.23;56.53
64599;SHT31;51008;51.504;11.548;2023-02-28T14:49:34;4.26;57.86
64599;SHT31;51008;51.504;11.548;2023-02-28T14:54:37;4.23;57.45
64599;SHT31;51008;51.504;11.548;2023-02-28T14:59:38;4.05;56.38
64599;SHT31;51008;51.504;11.548;2023-02-28T15:04:39;4.06;57.47
64599;SHT31;51008;51.504;11.548;2023-02-28T15:09:40;3.97;57.35
64599;SHT31;51008;51.504;11.548;2023-02-28T15:14:43;3.88;59.25
64599;SHT31;51008;51.504;11.548;2023-02-28T15:19:48;3.83;58.72
64599;SHT31;51008;51.504;11.548;2023-02-28T15:24:52;3.78;57.95
64599;SHT31;51008;51.504;11.548;2023-02-28T15:29:56;3.66;60.19
64599;SHT31;51008;51.504;11.548;2023-02-28T15:34:59;3.53;59.39
64599;SHT31;51008;51.504;11.548;2023-02-28T15:45:35;3.44;61.80
64599;SHT31;51008;51.504;11.548;2023-02-28T15:50:38;3.32;61.27
64599;SHT31;51008;51.504;11.548;2023-02-28T15:55:39;3.19;61.84
64599;SHT31;51008;51.504;11.548;2023-02-28T16:00:43;3.16;63.20
64599;SHT31;51008;51.504;11.548;2023-02-28T16:05:46;3.03;63.09
64599;SHT31;51008;51.504;11.548;2023-02-28T16:10:48;2.98;62.89
64599;SHT31;51008;51.504;11.548;2023-02-28T16:15:49;2.80;63.86
64599;SHT31;51008;51.504;11.548;2023-02-28T16:20:50;2.66;64.31
64599;SHT31;51008;51.504;11.548;2023-02-28T16:25:51;2.54;66.05
64599;SHT31;51008;51.504;11.548;2023-02-28T16:30:52;2.34;67.09
64599;SHT31;51008;51.504;11.548;2023-02-28T16:35:53;2.11;67.91
64599;SHT31;51008;51.504;11.548;2023-02-28T16:40:56;1.89;68.08
64599;SHT31;51008;51.504;11.548;2023-02-28T16:45:59;1.70;69.20
64599;SHT31;51008;51.504;11.548;2023-02-28T16:51:02;1.55;70.41
64599;SHT31;51008;51.504;11.548;2023-02-28T16:56:03;1.32;71.30
64599;SHT31;51008;51.504;11.548;2023-02-28T17:01:04;1.08;72.07
64599;SHT31;51008;51.504;11.548;2023-02-28T17:06:06;0.94;72.95
64599;SHT31;51008;51.504;11.548;2023-02-28T17:11:09;0.86;73.38
64599;SHT31;51008;51.504;11.548;2023-02-28T17:16:20;0.66;74.33
64599;SHT31;51008;51.504;11.548;2023-02-28T17:21:23;0.52;74.91
64599;SHT31;51008;51.504;11.548;2023-02-28T17:26:25;0.45;75.36
64599;SHT31;51008;51.504;11.548;2023-02-28T17:31:26;0.38;75.41
64599;SHT31;51008;51.504;11.548;2023-02-28T17:36:27;0.28;75.67
64599;SHT31;51008;51.504;11.548;2023-02-28T17:41:28;0.20;75.93
64599;SHT31;51008;51.504;11.548;2023-02-28T17:46:29;0.15;75.84
64599;SHT31;51008;51.504;11.548;2023-02-28T17:51:30;0.06;76.43
64599;SHT31;51008;51.504;11.548;2023-02-28T17:56:31;-0.08;76.65
64599;SHT31;51008;51.504;11.548;2023-02-28T18:01:32;-0.15;77.14
64599;SHT31;51008;51.504;11.548;2023-02-28T18:06:43;-0.22;77.25
64599;SHT31;51008;51.504;11.548;2023-02-28T18:11:44;-0.35;77.66
64599;SHT31;51008;51.504;11.548;2023-02-28T18:16:47;-0.52;77.76
64599;SHT31;51008;51.504;11.548;2023-02-28T18:21:49;-0.57;77.65
64599;SHT31;51008;51.504;11.548;2023-02-28T18:26:51;-0.63;77.96
64599;SHT31;51008;51.504;11.548;2023-02-28T18:31:55;-0.69;78.17
64599;SHT31;51008;51.504;11.548;2023-02-28T18:36:56;-0.66;77.80
64599;SHT31;51008;51.504;11.548;2023-02-28T18:41:57;-0.76;78.38
64599;SHT31;51008;51.504;11.548;2023-02-28T18:47:01;-0.85;78.38
64599;SHT31;51008;51.504;11.548;2023-02-28T18:52:02;-0.93;78.41
64599;SHT31;51008;51.504;11.548;2023-02-28T18:57:08;-1.05;78.77
64599;SHT31;51008;51.504;11.548;2023-02-28T19:02:09;-1.05;79.10
64599;SHT31;51008;51.504;11.548;2023-02-28T19:07:10;-1.16;78.94
64599;SHT31;51008;51.504;11.548;2023-02-28T19:12:11;-1.28;78.79
64599;SHT31;51008;51.504;11.548;2023-02-28T19:17:12;-1.29;79.53
64599;SHT31;51008;51.504;11.548;2023-02-28T19:22:13;-1.34;80.18
64599;SHT31;51008;51.504;11.548;2023-02-28T19:27:14;-1.42;80.72
64599;SHT31;51008;51.504;11.548;2023-02-28T19:32:16;-1.57;81.25
64599;SHT31;51008;51.504;11.548;2023-02-28T19:37:17;-1.56;81.34
64599;SHT31;51008;51.504;11.548;2023-02-28T19:42:18;-1.63;81.71
64599;SHT31;51008;51.504;11.548;2023-02-28T19:47:20;-1.66;81.87
64599;SHT31;51008;51.504;11.548;2023-02-28T19:52:21;-1.70;82.35
64599;SHT31;51008;51.504;11.548;2023-02-28T19:57:22;-1.75;82.86
64599;SHT31;51008;51.504;11.548;2023-02-28T20:02:24;-1.81;82.96
64599;SHT31;51008;51.504;11.548;2023-02-28T20:07:25;-1.85;83.04
64599;SHT31;51008;51.504;11.548;2023-02-28T20:12:26;-1.88;83.16
64599;SHT31;51008;51.504;11.548;2023-02-28T20:17:28;-1.95;83.61
64599;SHT31;51008;51.504;11.548;2023-02-28T20:22:29;-2.01;84.04
64599;SHT31;51008;51.504;11.548;2023-02-28T20:27:30;-2.09;84.50
64599;SHT31;51008;51.504;11.548;2023-02-28T20:32:31;-2.10;83.88
64599;SHT31;51008;51.504;11.548;2023-02-28T20:37:33;-2.19;84.36
64599;SHT31;51008;51.504;11.548;2023-02-28T20:42:36;-2.18;84.68
64599;SHT31;51008;51.504;11.548;2023-02-28T20:47:37;-2.35;84.73
64599;SHT31;51008;51.504;11.548;2023-02-28T20:52:38;-2.39;84.94
64599;SHT31;51008;51.504;11.548;2023-02-28T20:57:39;-2.46;84.59
64599;SHT31;51008;51.504;11.548;2023-02-28T21:02:40;-2.56;85.20
64599;SHT31;51008;51.504;11.548;2023-02-28T21:07:41;-2.57;85.33
64599;SHT31;51008;51.504;11.548;2023-02-28T21:12:42;-2.57;85.41
64599;SHT31;51008;51.504;11.548;2023-02-28T21:17:43;-2.63;85.17
64599;SHT31;51008;51.504;11.548;2023-02-28T21:22:44;-2.68;85.00
64599;SHT31;51008;51.504;11.548;2023-02-28T21:27:45;-2.70;85.34
64599;SHT31;51008;51.504;11.548;2023-02-28T21:32:46;-2.68;85.72
64599;SHT31;51008;51.504;11.548;2023-02-28T21:37:47;-2.67;85.67
64599;SHT31;51008;51.504;11.548;2023-02-28T21:42:48;-2.72;85.82
64599;SHT31;51008;51.504;11.548;2023-02-28T21:47:49;-2.77;85.36
64599;SHT31;51008;51.504;11.548;2023-02-28T21:52:50;-2.75;85.53
64599;SHT31;51008;51.504;11.548;2023-02-28T21:57:51;-2.78;85.30
64599;SHT31;51008;51.504;11.548;2023-02-28T22:02:52;-2.81;85.34
64599;SHT31;51008;51.504;11.548;2023-02-28T22:07:53;-2.84;85.43
64599;SHT31;51008;51.504;11.548;2023-02-28T22:12:55;-2.93;85.37
64599;SHT31;51008;51.504;11.548;2023-02-28T22:17:57;-3.00;85.31
64599;SHT31;51008;51.504;11.548;2023-02-28T22:22:58;-3.06;85.54
64599;SHT31;51008;51.504;11.548;2023-02-28T22:27:59;-3.06;85.95
64599;SHT31;51008;51.504;11.548;2023-02-28T22:33:00;-3.09;86.46
64599;SHT31;51008;51.504;11.548;2023-02-28T22:38:00;-3.15;86.42
64599;SHT31;51008;51.504;11.548;2023-02-28T22:43:02;-3.23;86.55
64599;SHT31;51008;51.504;11.548;2023-02-28T22:48:04;-3.30;86.46
64599;SHT31;51008;51.504;11.548;2023-02-28T22:53:05;-3.40;86.42
64599;SHT31;51008;51.504;11.548;2023-02-28T22:58:06;-3.37;86.98
64599;SHT31;51008;51.504;11.548;2023-02-28T23:03:07;-3.40;87.37
64599;SHT31;51008;51.504;11.548;2023-02-28T23:08:08;-3.44;86.97
64599;SHT31;51008;51.504;11.548;2023-02-28T23:13:09;-3.57;86.72
64599;SHT31;51008;51.504;11.548;2023-02-28T23:18:11;-3.51;87.32
64599;SHT31;51008;51.504;11.548;2023-02-28T23:23:12;-3.52;87.02
64599;SHT31;51008;51.504;11.548;2023-02-28T23:28:13;-3.54;87.32
64599;SHT31;51008;51.504;11.548;2023-02-28T23:33:14;-3.60;87.51
64599;SHT31;51008;51.504;11.548;2023-02-28T23:38:15;-3.54;87.46
64599;SHT31;51008;51.504;11.548;2023-02-28T23:43:16;-3.60;87.13
64599;SHT31;51008;51.504;11.548;2023-02-28T23:48:17;-3.65;87.10
64599;SHT31;51008;51.504;11.548;2023-02-28T23:53:18;-3.69;87.09
64599;SHT31;51008;51.504;11.548;2023-02-28T23:58:19;-3.72;87.06
